createdAt,value
2024-02-02T00:03:14.430Z,100240.35
2024-02-02T00:08:18.091Z,100240.87
2024-02-02T00:13:21.205Z,100243.09
2024-02-02T00:18:24.510Z,100250.85
2024-02-02T00:23:27.733Z,100258.44
2024-02-02T00:28:30.869Z,100254.77
2024-02-02T00:33:34.160Z,100252.15
2024-02-02T00:38:37.374Z,100247.63
2024-02-02T00:43:40.678Z,100255.47
2024-02-02T00:48:44.385Z,100259.96
2024-02-02T00:53:47.839Z,100264.15
2024-02-02T00:58:51.145Z,100267.02
2024-02-02T01:03:54.198Z,100271.46
2024-02-02T01:08:57.372Z,100268.98
2024-02-02T01:14:00.548Z,100269.15
2024-02-02T01:19:04.015Z,100276.59
2024-02-02T01:24:07.879Z,100279.69
2024-02-02T01:29:11.118Z,100284.17
2024-02-02T01:34:14.450Z,100278.64
2024-02-02T01:39:18.213Z,100283.56
2024-02-02T01:44:21.343Z,100284.47
2024-02-02T01:49:24.688Z,100289.70
2024-02-02T01:54:29.060Z,100295.32
2024-02-02T01:59:32.713Z,100294.13
2024-02-02T02:04:36.049Z,100295.27
2024-02-02T02:09:39.231Z,100302.63
2024-02-02T02:14:43.432Z,100308.61
2024-02-02T02:19:50.345Z,100307.48
2024-02-02T02:24:53.480Z,100301.50
2024-02-02T02:29:56.609Z,100299.13
2024-02-02T02:35:00.007Z,100299.18
2024-02-02T02:40:03.328Z,100306.45
2024-02-02T02:45:06.787Z,100309.09
2024-02-02T02:50:13.562Z,100308.02
2024-02-02T02:55:16.660Z,100331.96
2024-02-02T03:00:21.171Z,100334.90
2024-02-02T03:05:25.251Z,100330.02
2024-02-02T03:10:28.946Z,100331.10
2024-02-02T03:15:33.235Z,100340.83
2024-02-02T03:20:36.495Z,100346.75
2024-02-02T03:25:39.616Z,100345.43
2024-02-02T03:30:42.832Z,100352.45
2024-02-02T03:35:46.024Z,100354.36
2024-02-02T03:40:49.129Z,100362.02
2024-02-02T03:45:52.252Z,100364.27
2024-02-02T03:50:55.417Z,100371.58
2024-02-02T03:55:59.608Z,100384.35
2024-02-02T04:01:02.809Z,100387.30
2024-02-02T04:06:06.755Z,100392.70
2024-02-02T04:11:09.939Z,100396.86
2024-02-02T04:16:12.944Z,100396.04
2024-02-02T04:21:16.416Z,100400.20
2024-02-02T04:26:19.581Z,100394.73
2024-02-02T04:31:22.696Z,100394.73
2024-02-02T04:36:25.930Z,100398.36
2024-02-02T04:41:29.101Z,100399.73
2024-02-02T04:46:32.210Z,100400.54
2024-02-02T04:51:36.658Z,100398.89
2024-02-02T04:56:39.864Z,100394.96
2024-02-02T05:01:43.007Z,100399.66
2024-02-02T05:06:46.180Z,100400.25
2024-02-02T05:11:49.409Z,100399.30
2024-02-02T05:16:52.502Z,100402.58
2024-02-02T05:21:55.624Z,100412.77
2024-02-02T05:26:58.748Z,100416.48
2024-02-02T05:32:02.036Z,100423.98
2024-02-02T05:37:05.613Z,100425.09
2024-02-02T05:42:08.713Z,100424.26
2024-02-02T05:47:12.088Z,100430.46
2024-02-02T05:52:15.185Z,100425.46
2024-02-02T05:57:18.220Z,100424.58
2024-02-02T06:02:22.649Z,100426.73
2024-02-02T06:07:26.086Z,100427.35
2024-02-02T06:12:29.293Z,100429.55
2024-02-02T06:17:32.502Z,100424.54
2024-02-02T06:22:35.801Z,100434.17
2024-02-02T06:27:39.321Z,100440.01
2024-02-02T06:32:47.388Z,100438.36
2024-02-02T06:37:50.543Z,100440.38
2024-02-02T06:42:53.755Z,100444.71
2024-02-02T06:47:56.987Z,100453.77
2024-02-02T06:53:00.174Z,100453.11
2024-02-02T06:58:05.743Z,100463.03
2024-02-02T07:03:08.908Z,100461.61
2024-02-02T07:08:12.576Z,100467.10
2024-02-02T07:13:15.835Z,100472.26
2024-02-02T07:18:38.213Z,100478.30
2024-02-02T07:23:42.961Z,100488.52
2024-02-02T07:28:46.317Z,100486.68
2024-02-02T07:33:50.412Z,100490.73
2024-02-02T07:38:57.566Z,100491.06
2024-02-02T07:44:03.110Z,100488.85
2024-02-02T07:49:06.517Z,100489.36
2024-02-02T07:54:10.438Z,100485.80
2024-02-02T07:59:13.481Z,100480.92
2024-02-02T08:04:16.890Z,100483.21
2024-02-02T08:09:20.289Z,100487.11
2024-02-02T08:14:23.520Z,100495.63
2024-02-02T08:19:27.063Z,100501.27
2024-02-02T08:24:30.354Z,100495.92
2024-02-02T08:29:33.454Z,100490.64
2024-02-02T08:34:36.857Z,100489.86
2024-02-02T08:39:40.248Z,100495.20
2024-02-02T08:44:43.863Z,100501.34
2024-02-02T08:49:57.736Z,100508.70
2024-02-02T08:55:04.518Z,100502.98
2024-02-02T09:00:15.992Z,100499.01
2024-02-02T09:05:26.350Z,100501.43
2024-02-02T09:10:33.237Z,100492.79
2024-02-02T09:15:36.786Z,100489.54
2024-02-02T09:20:50.543Z,100486.04
2024-02-02T09:25:54.598Z,100486.85
2024-02-02T09:31:06.271Z,100476.29
2024-02-02T09:36:10.149Z,100478.41
2024-02-02T09:41:41.193Z,100472.73
2024-02-02T09:46:57.196Z,100470.52
2024-02-02T09:52:21.376Z,100469.98
2024-02-02T09:57:30.541Z,100468.58
2024-02-02T10:03:03.035Z,100464.52
2024-02-02T10:08:44.539Z,100457.45
2024-02-02T10:13:53.681Z,100460.05
2024-02-02T10:19:06.192Z,100456.62
2024-02-02T10:24:22.165Z,100451.83
2024-02-02T10:29:41.724Z,100456.73
2024-02-02T10:35:10.542Z,100444.67
2024-02-02T10:40:38.188Z,100449.79
2024-02-02T10:45:58.469Z,100452.97
2024-02-02T10:51:37.953Z,100450.77
2024-02-02T10:57:02.440Z,100444.24
2024-02-02T11:02:11.974Z,100442.02
2024-02-02T11:07:22.857Z,100427.83
2024-02-02T11:13:01.774Z,100418.20
2024-02-02T11:18:51.807Z,100412.23
2024-02-02T11:24:24.744Z,100397.11
2024-02-02T11:29:46.463Z,100383.91
2024-02-02T11:35:22.408Z,100387.27
2024-02-02T11:40:28.446Z,100379.05
2024-02-02T11:45:39.803Z,100372.88
2024-02-02T11:50:45.465Z,100360.14
2024-02-02T11:55:52.911Z,100355.88
2024-02-02T12:01:30.218Z,100355.08
2024-02-02T12:07:02.897Z,100344.54
2024-02-02T12:12:14.280Z,100343.32
2024-02-02T12:17:19.115Z,100341.93
2024-02-02T12:22:23.727Z,100336.89
2024-02-02T12:27:27.369Z,100333.73
2024-02-02T12:32:30.865Z,100328.69
2024-02-02T12:37:52.113Z,100328.33
2024-02-02T12:42:58.280Z,100329.55
2024-02-02T12:48:01.953Z,100323.48
2024-02-02T12:53:06.565Z,100318.99
2024-02-02T12:58:09.766Z,100315.02
2024-02-02T13:03:14.190Z,100308.27
2024-02-02T13:08:29.606Z,100293.87
2024-02-02T13:13:35.010Z,100290.55
2024-02-02T13:18:38.622Z,100290.52
2024-02-02T13:23:44.207Z,100279.08
2024-02-02T13:28:53.278Z,100267.61
2024-02-02T13:34:06.467Z,100253.39
2024-02-02T13:39:20.471Z,100252.66
2024-02-02T13:44:24.573Z,100245.71
2024-02-02T13:49:35.017Z,100237.57
2024-02-02T13:54:38.969Z,100228.55
2024-02-02T13:59:42.946Z,100221.23
2024-02-02T14:04:47.155Z,100212.70
2024-02-02T14:10:10.765Z,100200.01
2024-02-02T14:15:14.265Z,100204.96
2024-02-02T14:20:17.529Z,100185.20
2024-02-02T14:25:30.991Z,100172.37
2024-02-02T14:30:37.121Z,100162.27
2024-02-02T14:35:40.992Z,100156.88
2024-02-02T14:40:44.311Z,100138.48
2024-02-02T14:45:48.364Z,100133.41
2024-02-02T14:50:52.272Z,100127.30
2024-02-02T14:55:55.376Z,100121.20
2024-02-02T15:01:02.006Z,100110.27
2024-02-02T15:06:05.906Z,100098.80
2024-02-02T15:11:10.530Z,100093.56
2024-02-02T15:16:14.763Z,100091.09
2024-02-02T15:21:18.221Z,100082.05
2024-02-02T15:26:21.592Z,100074.56
2024-02-02T15:31:25.018Z,100061.20
2024-02-02T15:36:30.254Z,100058.05
2024-02-02T15:41:36.265Z,100050.05
2024-02-02T15:46:39.586Z,100040.49
2024-02-02T15:51:43.514Z,100035.09
2024-02-02T15:56:47.151Z,100027.96
2024-02-02T16:01:50.837Z,100014.29
2024-02-02T16:07:03.866Z,100000.27
2024-02-02T16:12:14.504Z,99983.84
2024-02-02T16:17:27.674Z,99972.09
2024-02-02T16:22:31.714Z,99965.84
2024-02-02T16:27:36.375Z,99953.75
2024-02-02T16:32:40.018Z,99939.44
2024-02-02T16:37:43.220Z,99933.56
2024-02-02T16:42:47.034Z,99931.66
2024-02-02T16:47:50.502Z,99911.66
2024-02-02T16:52:53.674Z,99900.27
2024-02-02T16:57:56.826Z,99883.55
2024-02-02T17:03:00.155Z,99872.50
2024-02-02T17:08:05.456Z,99873.02
2024-02-02T17:13:08.572Z,99866.29
2024-02-02T17:18:11.859Z,99860.77
2024-02-02T17:23:16.139Z,99855.41
2024-02-02T17:28:19.298Z,99841.60
2024-02-02T17:33:22.546Z,99821.58
2024-02-02T17:38:25.750Z,99794.98
2024-02-02T17:43:29.529Z,99784.80
2024-02-02T17:48:34.090Z,99780.30
2024-02-02T17:53:41.104Z,99776.69
2024-02-02T17:58:44.959Z,99754.94
2024-02-02T18:03:48.313Z,99729.57
2024-02-02T18:08:51.682Z,99718.88
2024-02-02T18:13:54.884Z,99703.71
2024-02-02T18:18:58.380Z,99696.80
2024-02-02T18:24:01.731Z,99687.33
2024-02-02T18:29:05.282Z,99680.61
2024-02-02T18:34:09.016Z,99662.13
2024-02-02T18:39:14.554Z,99644.88
2024-02-02T18:44:17.750Z,99639.17
2024-02-02T18:49:21.047Z,99632.45
2024-02-02T18:54:24.424Z,99613.45
2024-02-02T18:59:27.685Z,99588.91
2024-02-02T19:04:30.761Z,99580.79
2024-02-02T19:09:34.360Z,99575.79
2024-02-02T19:14:38.204Z,99563.67
2024-02-02T19:19:41.401Z,99545.70
2024-02-02T19:24:47.621Z,99529.96
2024-02-02T19:29:51.057Z,99533.42
2024-02-02T19:34:54.242Z,99520.63
2024-02-02T19:39:58.515Z,99518.56
2024-02-02T19:45:02.051Z,99504.02
2024-02-02T19:50:06.587Z,99477.92
2024-02-02T19:55:10.485Z,99468.39
2024-02-02T20:00:15.203Z,99462.17
2024-02-02T20:05:21.929Z,99460.77
2024-02-02T20:10:27.573Z,99444.00
2024-02-02T20:15:33.909Z,99444.85
2024-02-02T20:20:38.327Z,99424.59
2024-02-02T20:25:41.798Z,99407.82
2024-02-02T20:30:45.595Z,99395.02
2024-02-02T20:35:48.773Z,99386.55
2024-02-02T20:40:52.145Z,99372.17
2024-02-02T20:45:55.506Z,99355.73
2024-02-02T20:50:59.444Z,99344.66
2024-02-02T20:56:02.789Z,99330.98
2024-02-02T21:01:07.592Z,99322.84
2024-02-02T21:06:11.103Z,99319.20
2024-02-02T21:11:15.135Z,99299.81
2024-02-02T21:16:18.893Z,99291.32
2024-02-02T21:21:22.824Z,99293.02
2024-02-02T21:26:28.258Z,99283.13
2024-02-02T21:31:31.466Z,99280.48
2024-02-02T21:36:35.166Z,99286.00
2024-02-02T21:41:39.424Z,99271.96
2024-02-02T21:46:44.498Z,99263.29
2024-02-02T21:51:47.681Z,99269.31
2024-02-02T21:56:51.285Z,99264.59
2024-02-02T22:01:54.525Z,99219.07
2024-02-02T22:06:57.923Z,99186.86
2024-02-02T22:12:01.163Z,99174.89
2024-02-02T22:17:04.783Z,99173.95
2024-02-02T22:22:08.298Z,99160.61
2024-02-02T22:27:11.671Z,99146.71
2024-02-02T22:32:19.991Z,99136.12
2024-02-02T22:37:23.354Z,99120.48
2024-02-02T22:42:28.238Z,99125.81
2024-02-02T22:47:31.321Z,99116.95
2024-02-02T22:52:34.427Z,99122.09
2024-02-02T22:57:37.599Z,99115.65
2024-02-02T23:02:40.650Z,99128.06
2024-02-02T23:07:44.489Z,99123.90
2024-02-02T23:12:48.069Z,99127.33
2024-02-02T23:17:51.800Z,99102.57
2024-02-02T23:22:54.941Z,99104.27
2024-02-02T23:27:58.357Z,99097.66
2024-02-02T23:33:01.596Z,99090.04
2024-02-02T23:38:04.881Z,99089.65
2024-02-02T23:43:07.981Z,99065.38
2024-02-02T23:48:11.322Z,99052.02
2024-02-02T23:53:14.601Z,99039.16
2024-02-02T23:58:18.344Z,99041.17
